Applegate, Michigan
Current Conditions -  °F | °C
As of 1:00 PM on Friday 28 Nov 2014 (Local Time) from CYZR Reporting Station
Overcast Overcast  
Wind Chill: -8°   Ceiling: 12000
Heat Index: -4°   Visibility: 9mi
Dew Point: -12°   Wind: 6mph
Humidity: 54%   Direction: 240°WSW
Pressure: 30.24"   Gusts: NA
Location:  43.36°N, 82.64°W
Report Text: CYZR 281800Z AUTO 24005KT 9SM OVC120 M04/M12 A3024 RMK SLP251
Loading
Personal Weather Stations






























Interactive Weather Map New forecast layout! Learn more

10-Day Weather Forecast

Advertisements
Track Severe Weather on mobile